M.s. Sonoma — WZC8517 — position and weather

sailwx.info

Track history (hours):
 
Tides and Currents Weather Stations Pressure Air Temp Water Temp Dewpoint Dewpoint Depression Visibility Wind Speed Wind Dir Waves Ship Positions

M.s. Sonoma

Owner: GOLDEN GATE BRIDGE HWY & TRANSP DIST, LARKSPUR, CA. More information available from US FCC via Universal Licensing System and Coast Guard Vessel Documentation Center.

Last reported at 2018-Jul-22 05:02 UTC. Time now 2018-Jul-22 06:50 UTC.
Position N 37°57' W 122°31'.

Length 56 m.

Type: Passenger vessel. MMSI: 366969970.

Date/timePositionNaut miles runAvg speedWind from/ knotsBaromVisibWave heightAir tempDewpointWater temp
2018-Jul-22 05:02N 37°57' W 122°31'0 0.0
2018-Jul-22 05:00N 37°57' W 122°31'611.8
2018-Jul-22 04:30N 37°53' W 122°25'510.2
2018-Jul-22 04:00N 37°48' W 122°24'3 6.0
2018-Jul-22 03:31N 37°50' W 122°26'2 4.1
2018-Jul-22 03:00N 37°51' W 122°28'5 9.8
2018-Jul-22 02:30N 37°48' W 122°24'510.7
2018-Jul-22 02:01N 37°51' W 122°29'0 0.5
2018-Jul-22 01:31N 37°51' W 122°28'510.3
2018-Jul-22 01:00N 37°48' W 122°24'0 0.0
2018-Jul-22 00:30N 37°48' W 122°24'0 0.0
2018-Jul-22 00:00N 37°48' W 122°24'0 0.1
2018-Jul-21 23:30N 37°48' W 122°24'0 0.0
2018-Jul-21 23:00N 37°48' W 122°24'510.5
2018-Jul-21 22:30N 37°51' W 122°29'0 0.4
2018-Jul-21 22:00N 37°51' W 122°28'1 1.6
2018-Jul-21 21:31N 37°52' W 122°27'510.7
2018-Jul-21 21:00N 37°57' W 122°30'0 0.0
2018-Jul-21 04:26N 37°57' W 122°31'1 3.3
2018-Jul-21 04:00N 37°56' W 122°29'5 9.4
2018-Jul-21 03:30N 37°51' W 122°29'510.5
2018-Jul-21 03:00N 37°48' W 122°24'510.0
2018-Jul-21 02:30N 37°51' W 122°28'2 4.9
2018-Jul-21 02:00N 37°50' W 122°25'2 3.4
2018-Jul-21 01:30N 37°49' W 122°24'5 9.3
2018-Jul-21 01:00N 37°51' W 122°29'510.9
2018-Jul-21 00:31N 37°48' W 122°24'2 4.8
2018-Jul-21 00:00N 37°50' W 122°25'3 6.9
2018-Jul-20 23:31N 37°51' W 122°29'510.8
2018-Jul-20 23:00N 37°48' W 122°24'2 4.0
2018-Jul-20 22:30N 37°50' W 122°24'3 6.6
2018-Jul-20 22:00N 37°51' W 122°28'5 9.9
2018-Jul-20 21:30N 37°48' W 122°24'510.8
2018-Jul-20 21:00N 37°51' W 122°29'0 0.1
2018-Jul-20 20:30N 37°51' W 122°29'510.8
2018-Jul-20 20:01N 37°48' W 122°24'3 5.3
2018-Jul-20 19:31N 37°50' W 122°26'3 5.0
2018-Jul-20 19:00N 37°51' W 122°28'510.1
2018-Jul-20 18:30N 37°48' W 122°24'510.3
2018-Jul-20 18:01N 37°51' W 122°28'0 0.7
2018-Jul-20 17:30N 37°51' W 122°29'510.8
2018-Jul-20 17:00N 37°48' W 122°24'0 0.0
2018-Jul-20 16:30N 37°48' W 122°24'0 0.0
2018-Jul-20 16:01N 37°48' W 122°24'5 9.8
2018-Jul-20 15:30N 37°51' W 122°28'3 6.0
2018-Jul-20 15:00N 37°50' W 122°25'1 1.5
2018-Jul-20 14:30N 37°49' W 122°24'3 6.6
2018-Jul-20 14:00N 37°51' W 122°27'611.0
2018-Jul-20 13:30N 37°57' W 122°30'0 0.0
2018-Jul-20 04:22N 37°57' W 122°31'1 3.1
2018-Jul-20 04:00N 37°56' W 122°29'5 9.7
2018-Jul-20 03:31N 37°51' W 122°29'510.5
2018-Jul-20 03:00N 37°48' W 122°23'4 7.8
2018-Jul-20 02:30N 37°51' W 122°27'2 4.6
2018-Jul-20 02:01N 37°50' W 122°24'1 1.9
2018-Jul-20 01:30N 37°49' W 122°24'4 7.9
2018-Jul-20 01:01N 37°51' W 122°29'510.7
2018-Jul-20 00:30N 37°48' W 122°24'3 6.2
2018-Jul-20 00:01N 37°50' W 122°25'3 5.4
2018-Jul-19 23:30N 37°51' W 122°29'510.8
2018-Jul-19 23:00N 37°48' W 122°24'2 4.3
2018-Jul-19 22:30N 37°50' W 122°24'3 6.0
2018-Jul-19 22:01N 37°51' W 122°28'5 9.6
2018-Jul-19 21:31N 37°48' W 122°24'510.1
2018-Jul-19 21:01N 37°51' W 122°28'0 0.8
2018-Jul-19 20:31N 37°51' W 122°29'510.9
2018-Jul-19 20:01N 37°48' W 122°23'3 5.3
2018-Jul-19 19:31N 37°50' W 122°25'3 5.4
2018-Jul-19 19:01N 37°51' W 122°28'510.4
2018-Jul-19 18:30N 37°48' W 122°24'5 9.9
2018-Jul-19 18:00N 37°51' W 122°28'0 0.8
2018-Jul-19 17:30N 37°51' W 122°29'510.9
2018-Jul-19 17:01N 37°48' W 122°24'0 0.0
2018-Jul-19 16:30N 37°48' W 122°24'0 0.0
2018-Jul-19 16:00N 37°48' W 122°24'3 6.2
2018-Jul-19 15:31N 37°50' W 122°26'0 0.7
2018-Jul-19 15:00N 37°51' W 122°26'3 5.9
2018-Jul-19 14:31N 37°49' W 122°23'9 8.9
2018-Jul-19 13:30N 37°56' W 122°29'1 2.3
2018-Jul-19 13:00N 37°57' W 122°31'0 0.0
2018-Jul-19 04:52N 37°57' W 122°31'0 0.0
2018-Jul-19 04:30N 37°57' W 122°31'4 7.1
2018-Jul-19 04:00N 37°55' W 122°27'4 7.1
2018-Jul-19 03:30N 37°51' W 122°29'510.8
2018-Jul-19 03:01N 37°48' W 122°23'0 0.3
2018-Jul-19 02:30N 37°48' W 122°24'0 0.6
2018-Jul-19 02:00N 37°48' W 122°23'510.8
2018-Jul-19 01:30N 37°51' W 122°29'1 1.9
2018-Jul-19 01:01N 37°51' W 122°27'5 9.2
2018-Jul-19 00:30N 37°48' W 122°24'4 8.2
2018-Jul-19 00:00N 37°51' W 122°27'1 2.1
2018-Jul-18 23:30N 37°51' W 122°28'510.0
2018-Jul-18 23:00N 37°48' W 122°24'510.9
2018-Jul-18 22:31N 37°51' W 122°29'4 7.1
2018-Jul-18 22:01N 37°50' W 122°24'2 4.9
2018-Jul-18 21:31N 37°48' W 122°24'510.1
2018-Jul-18 21:00N 37°51' W 122°28'0 0.7
2018-Jul-18 20:30N 37°51' W 122°29'510.8
2018-Jul-18 20:01N 37°48' W 122°23'2 4.2
2018-Jul-18 19:30N 37°50' W 122°25'3 5.9
2018-Jul-18 19:00N 37°51' W 122°28'5 9.9
2018-Jul-18 18:30N 37°48' W 122°24'510.1
2018-Jul-18 18:01N 37°51' W 122°28'0 0.7
2018-Jul-18 17:30N 37°51' W 122°28'5 9.4
2018-Jul-18 17:00N 37°48' W 122°24'0 0.0
2018-Jul-18 16:30N 37°48' W 122°24'0 0.0
2018-Jul-18 16:00N 37°48' W 122°24'3 6.6
2018-Jul-18 15:30N 37°50' W 122°26'0 0.9
2018-Jul-18 15:00N 37°51' W 122°26'2 4.8
2018-Jul-18 14:31N 37°49' W 122°24'9 8.5
2018-Jul-18 13:30N 37°56' W 122°29'1 2.1
2018-Jul-18 13:00N 37°57' W 122°31'0 0.0
2018-Jul-18 04:18N 37°57' W 122°31'1 4.6
2018-Jul-18 04:00N 37°56' W 122°29'5 9.7
2018-Jul-18 03:31N 37°51' W 122°28'5 9.4
2018-Jul-18 03:00N 37°48' W 122°23'3 6.5
2018-Jul-18 02:30N 37°50' W 122°26'1 2.2
2018-Jul-18 02:00N 37°50' W 122°25'2 3.9
2018-Jul-18 01:30N 37°49' W 122°24'5 9.7
2018-Jul-18 01:00N 37°51' W 122°29'510.9
2018-Jul-18 00:30N 37°48' W 122°24'2 3.5
2018-Jul-18 00:00N 37°49' W 122°25'4 7.7
2018-Jul-17 23:31N 37°51' W 122°29'510.9
2018-Jul-17 23:00N 37°48' W 122°24'3 5.2
2018-Jul-17 22:30N 37°50' W 122°25'2 3.1
2018-Jul-17 22:00N 37°51' W 122°27'4 8.0
2018-Jul-17 21:30N 37°48' W 122°24'511.1
2018-Jul-17 21:01N 37°51' W 122°29'0 0.1
2018-Jul-17 20:30N 37°51' W 122°29'510.9
2018-Jul-17 20:00N 37°48' W 122°23'2 4.0
2018-Jul-17 19:31N 37°50' W 122°25'4 7.2
2018-Jul-17 19:01N 37°51' W 122°29'510.8
2018-Jul-17 18:31N 37°48' W 122°24'510.0
2018-Jul-17 18:01N 37°51' W 122°28'0 0.9
2018-Jul-17 17:31N 37°51' W 122°29'510.9
2018-Jul-17 17:01N 37°48' W 122°24'0 0.0
2018-Jul-17 16:30N 37°48' W 122°24'0 0.0
2018-Jul-17 16:01N 37°48' W 122°24'2 3.9
2018-Jul-17 15:31N 37°50' W 122°25'3 5.9
2018-Jul-17 15:00N 37°51' W 122°28'4 8.3
2018-Jul-17 14:31N 37°49' W 122°24'5 9.7
2018-Jul-17 14:00N 37°51' W 122°29'5 9.7
2018-Jul-17 13:30N 37°56' W 122°30'1 0.1
2018-Jul-17 04:08N 37°57' W 122°30'1 9.6
2018-Jul-17 04:00N 37°56' W 122°29'816.5
2018-Jul-17 03:30N 37°49' W 122°23'1 1.2
2018-Jul-17 03:00N 37°48' W 122°23'510.2
2018-Jul-17 02:30N 37°51' W 122°29'510.9
2018-Jul-17 02:00N 37°48' W 122°24'2 4.8
2018-Jul-17 01:30N 37°50' W 122°25'3 6.3
2018-Jul-17 01:00N 37°51' W 122°29'510.8
2018-Jul-17 00:30N 37°48' W 122°24'4 4.2
2018-Jul-16 23:30N 37°51' W 122°27'4 8.4
2018-Jul-16 23:00N 37°48' W 122°24'510.8
2018-Jul-16 22:31N 37°51' W 122°29'2 3.8
2018-Jul-16 22:00N 37°51' W 122°26'4 7.4
2018-Jul-16 21:30N 37°48' W 122°24'510.4
2018-Jul-16 21:00N 37°51' W 122°28'0 0.5
2018-Jul-16 20:31N 37°51' W 122°29'510.2
2018-Jul-16 20:00N 37°48' W 122°23'2 3.8
2018-Jul-16 19:30N 37°50' W 122°25'3 6.1
2018-Jul-16 19:00N 37°51' W 122°28'510.2
2018-Jul-16 18:30N 37°48' W 122°24'5 9.8
2018-Jul-16 18:00N 37°51' W 122°28'1 1.2
2018-Jul-16 17:30N 37°51' W 122°29'510.9
2018-Jul-16 17:00N 37°48' W 122°24'0 0.0
2018-Jul-16 16:30N 37°48' W 122°24'0 0.0
2018-Jul-16 16:00N 37°48' W 122°24'2 4.1
2018-Jul-16 15:30N 37°50' W 122°25'3 6.1
2018-Jul-16 15:01N 37°51' W 122°28'4 8.6
2018-Jul-16 14:31N 37°49' W 122°24'5 9.9
2018-Jul-16 14:00N 37°51' W 122°29'5 9.7
2018-Jul-16 13:30N 37°56' W 122°29'1 0.1
2018-Jul-16 00:20N 37°57' W 122°31'2 7.4
2018-Jul-16 00:00N 37°56' W 122°28'918.7
2018-Jul-15 23:31N 37°47' W 122°23'1 1.5
2018-Jul-15 23:00N 37°47' W 122°23'0 0.0
2018-Jul-15 22:30N 37°47' W 122°23'0 0.0
2018-Jul-15 22:00N 37°47' W 122°23'0 0.0
2018-Jul-15 21:30N 37°47' W 122°23'0 0.0
2018-Jul-15 21:00N 37°47' W 122°23'0 0.0
2018-Jul-15 20:30N 37°47' W 122°23'0 0.0
2018-Jul-15 20:00N 37°47' W 122°23'0 0.1
2018-Jul-15 19:30N 37°47' W 122°23'5 9.8
2018-Jul-15 19:01N 37°51' W 122°25'713.5
2018-Jul-15 18:30N 37°57' W 122°30'0 0.5
2018-Jul-15 18:00N 37°57' W 122°31'0 0.0
2018-Jul-15 17:30N 37°57' W 122°31'0 0.0
2018-Jul-15 02:27N 37°57' W 122°31'3 7.2
2018-Jul-15 02:01N 37°55' W 122°27'815.4
2018-Jul-15 01:30N 37°48' W 122°24'1 1.6
2018-Jul-15 01:01N 37°49' W 122°23'510.2
2018-Jul-15 00:30N 37°51' W 122°29'1 2.5
2018-Jul-15 00:01N 37°51' W 122°27'4 8.5
2018-Jul-14 23:30N 37°48' W 122°24'3 5.4
2018-Jul-14 23:00N 37°50' W 122°25'3 5.7
2018-Jul-14 22:30N 37°51' W 122°29'5 9.8
2018-Jul-14 22:00N 37°49' W 122°23'2 3.5
2018-Jul-14 21:31N 37°50' W 122°25'3 6.4
2018-Jul-14 21:00N 37°51' W 122°29'510.8
2018-Jul-14 20:30N 37°48' W 122°24'4 7.6
2018-Jul-14 20:00N 37°51' W 122°27'1 1.9
2018-Jul-14 19:30N 37°51' W 122°28'5 9.4
2018-Jul-14 19:00N 37°48' W 122°24'510.7
2018-Jul-14 18:30N 37°51' W 122°29'4 7.1
2018-Jul-14 18:00N 37°50' W 122°24'2 4.6
2018-Jul-14 17:30N 37°48' W 122°23'917.6
2018-Jul-14 17:00N 37°56' W 122°28'2 3.8
2018-Jul-14 16:30N 37°57' W 122°31'0 0.0
2018-Jul-14 05:08N 37°57' W 122°31'0 0.0
2018-Jul-14 05:00N 37°57' W 122°31'611.5
2018-Jul-14 04:30N 37°52' W 122°27'1 2.9
2018-Jul-14 04:00N 37°51' W 122°29'510.8
2018-Jul-14 03:30N 37°48' W 122°23'0 0.2
2018-Jul-14 03:00N 37°48' W 122°24'510.3
2018-Jul-14 02:29N 37°51' W 122°29'3 7.1
2018-Jul-14 02:01N 37°50' W 122°25'2 3.8
2018-Jul-14 01:30N 37°49' W 122°23'510.2
2018-Jul-14 01:00N 37°51' W 122°29'510.9
2018-Jul-14 00:30N 37°48' W 122°24'2 4.9
2018-Jul-14 00:01N 37°50' W 122°25'3 6.7
2018-Jul-13 23:30N 37°51' W 122°29'510.8
2018-Jul-13 23:00N 37°48' W 122°24'4 8.9
2018-Jul-13 22:30N 37°51' W 122°27'1 2.6
2018-Jul-13 22:00N 37°51' W 122°26'3 6.7
2018-Jul-13 21:30N 37°48' W 122°24'510.8
2018-Jul-13 21:01N 37°51' W 122°29'0 0.1
2018-Jul-13 20:30N 37°51' W 122°29'510.4
2018-Jul-13 20:00N 37°48' W 122°23'2 4.0
2018-Jul-13 19:30N 37°50' W 122°25'3 6.3
2018-Jul-13 19:00N 37°51' W 122°28'510.7
2018-Jul-13 18:30N 37°48' W 122°24'510.3
2018-Jul-13 18:00N 37°51' W 122°28'0 0.6
2018-Jul-13 17:30N 37°51' W 122°29'510.9
2018-Jul-13 17:00N 37°48' W 122°24'0 0.0
2018-Jul-13 16:30N 37°48' W 122°24'0 0.0
2018-Jul-13 16:00N 37°48' W 122°24'2 3.8
2018-Jul-13 15:31N 37°50' W 122°24'3 5.4
2018-Jul-13 15:01N 37°51' W 122°27'1 1.2
2018-Jul-13 14:00N 37°51' W 122°29'5 9.8
2018-Jul-13 13:30N 37°56' W 122°30'1 0.1
2018-Jul-13 04:26N 37°57' W 122°31'2 3.5
2018-Jul-13 04:00N 37°56' W 122°29'5 9.3
2018-Jul-13 03:30N 37°51' W 122°29'510.9
2018-Jul-13 03:00N 37°48' W 122°23'5 9.0
2018-Jul-13 02:30N 37°51' W 122°28'3 5.3
2018-Jul-13 02:00N 37°50' W 122°24'2 3.4
2018-Jul-13 01:30N 37°49' W 122°23'510.2
2018-Jul-13 01:00N 37°51' W 122°29'510.7
2018-Jul-13 00:30N 37°48' W 122°24'3 5.4
2018-Jul-13 00:01N 37°50' W 122°25'3 5.8
2018-Jul-12 23:30N 37°51' W 122°29'510.8
2018-Jul-12 23:00N 37°48' W 122°24'2 5.0
2018-Jul-12 22:30N 37°50' W 122°25'3 5.1
2018-Jul-12 22:00N 37°51' W 122°28'5 9.9
2018-Jul-12 21:30N 37°48' W 122°24'5 9.9
2018-Jul-12 21:01N 37°51' W 122°28'0 0.9
2018-Jul-12 20:30N 37°51' W 122°29'510.1
2018-Jul-12 20:01N 37°49' W 122°23'2 3.2
2018-Jul-12 19:31N 37°50' W 122°25'3 6.6
2018-Jul-12 19:01N 37°51' W 122°28'510.4
2018-Jul-12 18:30N 37°48' W 122°24'510.0
2018-Jul-12 18:01N 37°51' W 122°28'0 0.8
2018-Jul-12 17:30N 37°51' W 122°29'511.0
2018-Jul-12 17:00N 37°48' W 122°24'0 0.0
2018-Jul-12 16:30N 37°48' W 122°24'0 0.0
2018-Jul-12 16:00N 37°48' W 122°24'2 3.8
2018-Jul-12 15:30N 37°50' W 122°24'3 6.0
2018-Jul-12 15:00N 37°51' W 122°28'4 8.8
2018-Jul-12 14:30N 37°48' W 122°23'510.3
2018-Jul-12 14:00N 37°51' W 122°29'510.2
2018-Jul-12 13:30N 37°56' W 122°30'  
Track history (hours):
 
Tides and Currents Weather Stations Pressure Air Temp Water Temp Dewpoint Dewpoint Depression Visibility Wind Speed Wind Dir Waves Ship Positions

M.s. Sonoma

Owner: GOLDEN GATE BRIDGE HWY & TRANSP DIST, LARKSPUR, CA. More information available from US FCC via Universal Licensing System and Coast Guard Vessel Documentation Center.

Last reported at 2018-Jul-22 05:02 UTC. Time now 2018-Jul-22 06:50 UTC.
Position N 37°57' W 122°31'.

Length 56 m.

Type: Passenger vessel. MMSI: 366969970.

Date/timePositionNaut miles runAvg speedWind from/ knotsBaromVisibWave heightAir tempDewpointWater temp
2018-Jul-22 05:02N 37°57' W 122°31'0 0.0
2018-Jul-22 05:00N 37°57' W 122°31'611.8
2018-Jul-22 04:30N 37°53' W 122°25'510.2
2018-Jul-22 04:00N 37°48' W 122°24'3 6.0
2018-Jul-22 03:31N 37°50' W 122°26'2 4.1
2018-Jul-22 03:00N 37°51' W 122°28'5 9.8
2018-Jul-22 02:30N 37°48' W 122°24'510.7
2018-Jul-22 02:01N 37°51' W 122°29'0 0.5
2018-Jul-22 01:31N 37°51' W 122°28'510.3
2018-Jul-22 01:00N 37°48' W 122°24'0 0.0
2018-Jul-22 00:30N 37°48' W 122°24'0 0.0
2018-Jul-22 00:00N 37°48' W 122°24'0 0.1
2018-Jul-21 23:30N 37°48' W 122°24'0 0.0
2018-Jul-21 23:00N 37°48' W 122°24'510.5
2018-Jul-21 22:30N 37°51' W 122°29'0 0.4
2018-Jul-21 22:00N 37°51' W 122°28'1 1.6
2018-Jul-21 21:31N 37°52' W 122°27'510.7
2018-Jul-21 21:00N 37°57' W 122°30'0 0.0
2018-Jul-21 04:26N 37°57' W 122°31'1 3.3
2018-Jul-21 04:00N 37°56' W 122°29'5 9.4
2018-Jul-21 03:30N 37°51' W 122°29'510.5
2018-Jul-21 03:00N 37°48' W 122°24'510.0
2018-Jul-21 02:30N 37°51' W 122°28'2 4.9
2018-Jul-21 02:00N 37°50' W 122°25'2 3.4
2018-Jul-21 01:30N 37°49' W 122°24'5 9.3
2018-Jul-21 01:00N 37°51' W 122°29'510.9
2018-Jul-21 00:31N 37°48' W 122°24'2 4.8
2018-Jul-21 00:00N 37°50' W 122°25'3 6.9
2018-Jul-20 23:31N 37°51' W 122°29'510.8
2018-Jul-20 23:00N 37°48' W 122°24'2 4.0
2018-Jul-20 22:30N 37°50' W 122°24'3 6.6
2018-Jul-20 22:00N 37°51' W 122°28'5 9.9
2018-Jul-20 21:30N 37°48' W 122°24'510.8
2018-Jul-20 21:00N 37°51' W 122°29'0 0.1
2018-Jul-20 20:30N 37°51' W 122°29'510.8
2018-Jul-20 20:01N 37°48' W 122°24'3 5.3
2018-Jul-20 19:31N 37°50' W 122°26'3 5.0
2018-Jul-20 19:00N 37°51' W 122°28'510.1
2018-Jul-20 18:30N 37°48' W 122°24'510.3
2018-Jul-20 18:01N 37°51' W 122°28'0 0.7
2018-Jul-20 17:30N 37°51' W 122°29'510.8
2018-Jul-20 17:00N 37°48' W 122°24'0 0.0
2018-Jul-20 16:30N 37°48' W 122°24'0 0.0
2018-Jul-20 16:01N 37°48' W 122°24'5 9.8
2018-Jul-20 15:30N 37°51' W 122°28'3 6.0
2018-Jul-20 15:00N 37°50' W 122°25'1 1.5
2018-Jul-20 14:30N 37°49' W 122°24'3 6.6
2018-Jul-20 14:00N 37°51' W 122°27'611.0
2018-Jul-20 13:30N 37°57' W 122°30'0 0.0
2018-Jul-20 04:22N 37°57' W 122°31'1 3.1
2018-Jul-20 04:00N 37°56' W 122°29'5 9.7
2018-Jul-20 03:31N 37°51' W 122°29'510.5
2018-Jul-20 03:00N 37°48' W 122°23'4 7.8
2018-Jul-20 02:30N 37°51' W 122°27'2 4.6
2018-Jul-20 02:01N 37°50' W 122°24'1 1.9
2018-Jul-20 01:30N 37°49' W 122°24'4 7.9
2018-Jul-20 01:01N 37°51' W 122°29'510.7
2018-Jul-20 00:30N 37°48' W 122°24'3 6.2
2018-Jul-20 00:01N 37°50' W 122°25'3 5.4
2018-Jul-19 23:30N 37°51' W 122°29'510.8
2018-Jul-19 23:00N 37°48' W 122°24'2 4.3
2018-Jul-19 22:30N 37°50' W 122°24'3 6.0
2018-Jul-19 22:01N 37°51' W 122°28'5 9.6
2018-Jul-19 21:31N 37°48' W 122°24'510.1
2018-Jul-19 21:01N 37°51' W 122°28'0 0.8
2018-Jul-19 20:31N 37°51' W 122°29'510.9
2018-Jul-19 20:01N 37°48' W 122°23'3 5.3
2018-Jul-19 19:31N 37°50' W 122°25'3 5.4
2018-Jul-19 19:01N 37°51' W 122°28'510.4
2018-Jul-19 18:30N 37°48' W 122°24'5 9.9
2018-Jul-19 18:00N 37°51' W 122°28'0 0.8
2018-Jul-19 17:30N 37°51' W 122°29'510.9
2018-Jul-19 17:01N 37°48' W 122°24'0 0.0
2018-Jul-19 16:30N 37°48' W 122°24'0 0.0
2018-Jul-19 16:00N 37°48' W 122°24'3 6.2
2018-Jul-19 15:31N 37°50' W 122°26'0 0.7
2018-Jul-19 15:00N 37°51' W 122°26'3 5.9
2018-Jul-19 14:31N 37°49' W 122°23'9 8.9
2018-Jul-19 13:30N 37°56' W 122°29'1 2.3
2018-Jul-19 13:00N 37°57' W 122°31'0 0.0
2018-Jul-19 04:52N 37°57' W 122°31'0 0.0
2018-Jul-19 04:30N 37°57' W 122°31'4 7.1
2018-Jul-19 04:00N 37°55' W 122°27'4 7.1
2018-Jul-19 03:30N 37°51' W 122°29'510.8
2018-Jul-19 03:01N 37°48' W 122°23'0 0.3
2018-Jul-19 02:30N 37°48' W 122°24'0 0.6
2018-Jul-19 02:00N 37°48' W 122°23'510.8
2018-Jul-19 01:30N 37°51' W 122°29'1 1.9
2018-Jul-19 01:01N 37°51' W 122°27'5 9.2
2018-Jul-19 00:30N 37°48' W 122°24'4 8.2
2018-Jul-19 00:00N 37°51' W 122°27'1 2.1
2018-Jul-18 23:30N 37°51' W 122°28'510.0
2018-Jul-18 23:00N 37°48' W 122°24'510.9
2018-Jul-18 22:31N 37°51' W 122°29'4 7.1
2018-Jul-18 22:01N 37°50' W 122°24'2 4.9
2018-Jul-18 21:31N 37°48' W 122°24'510.1
2018-Jul-18 21:00N 37°51' W 122°28'0 0.7
2018-Jul-18 20:30N 37°51' W 122°29'510.8
2018-Jul-18 20:01N 37°48' W 122°23'2 4.2
2018-Jul-18 19:30N 37°50' W 122°25'3 5.9
2018-Jul-18 19:00N 37°51' W 122°28'5 9.9
2018-Jul-18 18:30N 37°48' W 122°24'510.1
2018-Jul-18 18:01N 37°51' W 122°28'0 0.7
2018-Jul-18 17:30N 37°51' W 122°28'5 9.4
2018-Jul-18 17:00N 37°48' W 122°24'0 0.0
2018-Jul-18 16:30N 37°48' W 122°24'0 0.0
2018-Jul-18 16:00N 37°48' W 122°24'3 6.6
2018-Jul-18 15:30N 37°50' W 122°26'0 0.9
2018-Jul-18 15:00N 37°51' W 122°26'2 4.8
2018-Jul-18 14:31N 37°49' W 122°24'9 8.5
2018-Jul-18 13:30N 37°56' W 122°29'1 2.1
2018-Jul-18 13:00N 37°57' W 122°31'0 0.0
2018-Jul-18 04:18N 37°57' W 122°31'1 4.6
2018-Jul-18 04:00N 37°56' W 122°29'5 9.7
2018-Jul-18 03:31N 37°51' W 122°28'5 9.4
2018-Jul-18 03:00N 37°48' W 122°23'3 6.5
2018-Jul-18 02:30N 37°50' W 122°26'1 2.2
2018-Jul-18 02:00N 37°50' W 122°25'2 3.9
2018-Jul-18 01:30N 37°49' W 122°24'5 9.7
2018-Jul-18 01:00N 37°51' W 122°29'510.9
2018-Jul-18 00:30N 37°48' W 122°24'2 3.5
2018-Jul-18 00:00N 37°49' W 122°25'4 7.7
2018-Jul-17 23:31N 37°51' W 122°29'510.9
2018-Jul-17 23:00N 37°48' W 122°24'3 5.2
2018-Jul-17 22:30N 37°50' W 122°25'2 3.1
2018-Jul-17 22:00N 37°51' W 122°27'4 8.0
2018-Jul-17 21:30N 37°48' W 122°24'511.1
2018-Jul-17 21:01N 37°51' W 122°29'0 0.1
2018-Jul-17 20:30N 37°51' W 122°29'510.9
2018-Jul-17 20:00N 37°48' W 122°23'2 4.0
2018-Jul-17 19:31N 37°50' W 122°25'4 7.2
2018-Jul-17 19:01N 37°51' W 122°29'510.8
2018-Jul-17 18:31N 37°48' W 122°24'510.0
2018-Jul-17 18:01N 37°51' W 122°28'0 0.9
2018-Jul-17 17:31N 37°51' W 122°29'510.9
2018-Jul-17 17:01N 37°48' W 122°24'0 0.0
2018-Jul-17 16:30N 37°48' W 122°24'0 0.0
2018-Jul-17 16:01N 37°48' W 122°24'2 3.9
2018-Jul-17 15:31N 37°50' W 122°25'3 5.9
2018-Jul-17 15:00N 37°51' W 122°28'4 8.3
2018-Jul-17 14:31N 37°49' W 122°24'5 9.7
2018-Jul-17 14:00N 37°51' W 122°29'5 9.7
2018-Jul-17 13:30N 37°56' W 122°30'1 0.1
2018-Jul-17 04:08N 37°57' W 122°30'1 9.6
2018-Jul-17 04:00N 37°56' W 122°29'816.5
2018-Jul-17 03:30N 37°49' W 122°23'1 1.2
2018-Jul-17 03:00N 37°48' W 122°23'510.2
2018-Jul-17 02:30N 37°51' W 122°29'510.9
2018-Jul-17 02:00N 37°48' W 122°24'2 4.8
2018-Jul-17 01:30N 37°50' W 122°25'3 6.3
2018-Jul-17 01:00N 37°51' W 122°29'510.8
2018-Jul-17 00:30N 37°48' W 122°24'4 4.2
2018-Jul-16 23:30N 37°51' W 122°27'4 8.4
2018-Jul-16 23:00N 37°48' W 122°24'510.8
2018-Jul-16 22:31N 37°51' W 122°29'2 3.8
2018-Jul-16 22:00N 37°51' W 122°26'4 7.4
2018-Jul-16 21:30N 37°48' W 122°24'510.4
2018-Jul-16 21:00N 37°51' W 122°28'0 0.5
2018-Jul-16 20:31N 37°51' W 122°29'510.2
2018-Jul-16 20:00N 37°48' W 122°23'2 3.8
2018-Jul-16 19:30N 37°50' W 122°25'3 6.1
2018-Jul-16 19:00N 37°51' W 122°28'510.2
2018-Jul-16 18:30N 37°48' W 122°24'5 9.8
2018-Jul-16 18:00N 37°51' W 122°28'1 1.2
2018-Jul-16 17:30N 37°51' W 122°29'510.9
2018-Jul-16 17:00N 37°48' W 122°24'0 0.0
2018-Jul-16 16:30N 37°48' W 122°24'0 0.0
2018-Jul-16 16:00N 37°48' W 122°24'2 4.1
2018-Jul-16 15:30N 37°50' W 122°25'3 6.1
2018-Jul-16 15:01N 37°51' W 122°28'4 8.6
2018-Jul-16 14:31N 37°49' W 122°24'5 9.9
2018-Jul-16 14:00N 37°51' W 122°29'5 9.7
2018-Jul-16 13:30N 37°56' W 122°29'1 0.1
2018-Jul-16 00:20N 37°57' W 122°31'2 7.4
2018-Jul-16 00:00N 37°56' W 122°28'918.7
2018-Jul-15 23:31N 37°47' W 122°23'1 1.5
2018-Jul-15 23:00N 37°47' W 122°23'0 0.0
2018-Jul-15 22:30N 37°47' W 122°23'0 0.0
2018-Jul-15 22:00N 37°47' W 122°23'0 0.0
2018-Jul-15 21:30N 37°47' W 122°23'0 0.0
2018-Jul-15 21:00N 37°47' W 122°23'0 0.0
2018-Jul-15 20:30N 37°47' W 122°23'0 0.0
2018-Jul-15 20:00N 37°47' W 122°23'0 0.1
2018-Jul-15 19:30N 37°47' W 122°23'5 9.8
2018-Jul-15 19:01N 37°51' W 122°25'713.5
2018-Jul-15 18:30N 37°57' W 122°30'0 0.5
2018-Jul-15 18:00N 37°57' W 122°31'0 0.0
2018-Jul-15 17:30N 37°57' W 122°31'0 0.0
2018-Jul-15 02:27N 37°57' W 122°31'3 7.2
2018-Jul-15 02:01N 37°55' W 122°27'815.4
2018-Jul-15 01:30N 37°48' W 122°24'1 1.6
2018-Jul-15 01:01N 37°49' W 122°23'510.2
2018-Jul-15 00:30N 37°51' W 122°29'1 2.5
2018-Jul-15 00:01N 37°51' W 122°27'4 8.5
2018-Jul-14 23:30N 37°48' W 122°24'3 5.4
2018-Jul-14 23:00N 37°50' W 122°25'3 5.7
2018-Jul-14 22:30N 37°51' W 122°29'5 9.8
2018-Jul-14 22:00N 37°49' W 122°23'2 3.5
2018-Jul-14 21:31N 37°50' W 122°25'3 6.4
2018-Jul-14 21:00N 37°51' W 122°29'510.8
2018-Jul-14 20:30N 37°48' W 122°24'4 7.6
2018-Jul-14 20:00N 37°51' W 122°27'1 1.9
2018-Jul-14 19:30N 37°51' W 122°28'5 9.4
2018-Jul-14 19:00N 37°48' W 122°24'510.7
2018-Jul-14 18:30N 37°51' W 122°29'4 7.1
2018-Jul-14 18:00N 37°50' W 122°24'2 4.6
2018-Jul-14 17:30N 37°48' W 122°23'917.6
2018-Jul-14 17:00N 37°56' W 122°28'2 3.8
2018-Jul-14 16:30N 37°57' W 122°31'0 0.0
2018-Jul-14 05:08N 37°57' W 122°31'0 0.0
2018-Jul-14 05:00N 37°57' W 122°31'611.5
2018-Jul-14 04:30N 37°52' W 122°27'1 2.9
2018-Jul-14 04:00N 37°51' W 122°29'510.8
2018-Jul-14 03:30N 37°48' W 122°23'0 0.2
2018-Jul-14 03:00N 37°48' W 122°24'510.3
2018-Jul-14 02:29N 37°51' W 122°29'3 7.1
2018-Jul-14 02:01N 37°50' W 122°25'2 3.8
2018-Jul-14 01:30N 37°49' W 122°23'510.2
2018-Jul-14 01:00N 37°51' W 122°29'510.9
2018-Jul-14 00:30N 37°48' W 122°24'2 4.9
2018-Jul-14 00:01N 37°50' W 122°25'3 6.7
2018-Jul-13 23:30N 37°51' W 122°29'510.8
2018-Jul-13 23:00N 37°48' W 122°24'4 8.9
2018-Jul-13 22:30N 37°51' W 122°27'1 2.6
2018-Jul-13 22:00N 37°51' W 122°26'3 6.7
2018-Jul-13 21:30N 37°48' W 122°24'510.8
2018-Jul-13 21:01N 37°51' W 122°29'0 0.1
2018-Jul-13 20:30N 37°51' W 122°29'510.4
2018-Jul-13 20:00N 37°48' W 122°23'2 4.0
2018-Jul-13 19:30N 37°50' W 122°25'3 6.3
2018-Jul-13 19:00N 37°51' W 122°28'510.7
2018-Jul-13 18:30N 37°48' W 122°24'510.3
2018-Jul-13 18:00N 37°51' W 122°28'0 0.6
2018-Jul-13 17:30N 37°51' W 122°29'510.9
2018-Jul-13 17:00N 37°48' W 122°24'0 0.0
2018-Jul-13 16:30N 37°48' W 122°24'0 0.0
2018-Jul-13 16:00N 37°48' W 122°24'2 3.8
2018-Jul-13 15:31N 37°50' W 122°24'3 5.4
2018-Jul-13 15:01N 37°51' W 122°27'1 1.2
2018-Jul-13 14:00N 37°51' W 122°29'5 9.8
2018-Jul-13 13:30N 37°56' W 122°30'1 0.1
2018-Jul-13 04:26N 37°57' W 122°31'2 3.5
2018-Jul-13 04:00N 37°56' W 122°29'5 9.3
2018-Jul-13 03:30N 37°51' W 122°29'510.9
2018-Jul-13 03:00N 37°48' W 122°23'5 9.0
2018-Jul-13 02:30N 37°51' W 122°28'3 5.3
2018-Jul-13 02:00N 37°50' W 122°24'2 3.4
2018-Jul-13 01:30N 37°49' W 122°23'510.2
2018-Jul-13 01:00N 37°51' W 122°29'510.7
2018-Jul-13 00:30N 37°48' W 122°24'3 5.4
2018-Jul-13 00:01N 37°50' W 122°25'3 5.8
2018-Jul-12 23:30N 37°51' W 122°29'510.8
2018-Jul-12 23:00N 37°48' W 122°24'2 5.0
2018-Jul-12 22:30N 37°50' W 122°25'3 5.1
2018-Jul-12 22:00N 37°51' W 122°28'5 9.9
2018-Jul-12 21:30N 37°48' W 122°24'5 9.9
2018-Jul-12 21:01N 37°51' W 122°28'0 0.9
2018-Jul-12 20:30N 37°51' W 122°29'510.1
2018-Jul-12 20:01N 37°49' W 122°23'2 3.2
2018-Jul-12 19:31N 37°50' W 122°25'3 6.6
2018-Jul-12 19:01N 37°51' W 122°28'510.4
2018-Jul-12 18:30N 37°48' W 122°24'510.0
2018-Jul-12 18:01N 37°51' W 122°28'0 0.8
2018-Jul-12 17:30N 37°51' W 122°29'511.0
2018-Jul-12 17:00N 37°48' W 122°24'0 0.0
2018-Jul-12 16:30N 37°48' W 122°24'0 0.0
2018-Jul-12 16:00N 37°48' W 122°24'2 3.8
2018-Jul-12 15:30N 37°50' W 122°24'3 6.0
2018-Jul-12 15:00N 37°51' W 122°28'4 8.8
2018-Jul-12 14:30N 37°48' W 122°23'510.3
2018-Jul-12 14:00N 37°51' W 122°29'510.2
2018-Jul-12 13:30N 37°56' W 122°30'  

Dump ship's entire track history